テヘラン の空港の天気 - METARとTAF

メヘラーバード国際空港(テヘラン) ( OIII / THR ) - イラン テヘラン
飛行場実況気象(Metar)
観測時間11/27 11:00 IRST (11/27 07:30 UTC)
風向・風速西 8m/s
視程5000m
天気現象
少しの雲 雲底高度 1220m
全天の4割程度の雲 雲底高度 3050m
気温18℃
湿度26%
気圧1019hPa
METAROIII 270730Z 27016KT 5000 FEW040 SCT100 18/M02 Q1019 A3011
過去の天気等 Google飛行場航空写真 Wunderground天気予報

過去48時間のMETAR

飛行場予報(TAF)
発表時間: 11/27 09:20 IRST (11/27 05:50 UTC)
予報対象時間: 27日9時 IRST ~ 28日15時 IRST
風向・風速西 3m/s
視程7000m
少しの雲 雲底高度 1070m
全天の4割程度の雲 雲底高度 3050m
27日9時 IRST ~ 27日14時 IRST に一時的に
風向・風速西 8m/s
少しの塔状積雲 雲底高度 1070m
全天の8割程度の雲 雲底高度 3050m
27日14時 IRST ~ 27日15時 IRST に徐々に
風向・風速北西 5m/s
27日15時 IRST ~ 27日21時 IRST に一時的に
風向・風速北西 10m/s
27日21時 IRST から 確率 40% で
風向・風速北西 10m/s
28日3時 IRST ~ 28日4時 IRST に徐々に
風向・風速北北東 3m/s
28日5時 IRST から 確率 40% で
視程4000m
天気現象煙霧
TAF OIII 270550Z 2706/2812 27006KT 7000 FEW035 SCT100
TEMPO 2706/2711 27016KT FEW035TCU BKN100
BECMG 2711/2712 31010KT
TEMPO 2712/2718 31020KT
PROB40 2718/2724 31020KT
BECMG 2800/2801 03006KT
PROB40 2802/2806 4000 HZ